sensor_id;sensor_type;location;lat;lon;timestamp;P1;durP1;ratioP1;P2;durP2;ratioP2
47403;SDS011;33157;51.508;4.288;2023-04-24T00:03:58;22.05;;;15.55;;
47403;SDS011;33157;51.508;4.288;2023-04-24T00:09:00;14.90;;;9.23;;
47403;SDS011;33157;51.508;4.288;2023-04-24T00:14:01;15.45;;;10.50;;
47403;SDS011;33157;51.508;4.288;2023-04-24T00:19:07;21.35;;;13.10;;
47403;SDS011;33157;51.508;4.288;2023-04-24T00:24:09;23.70;;;15.73;;
47403;SDS011;33157;51.508;4.288;2023-04-24T00:29:10;25.05;;;18.02;;
47403;SDS011;33157;51.508;4.288;2023-04-24T00:34:11;38.10;;;21.58;;
47403;SDS011;33157;51.508;4.288;2023-04-24T00:39:19;34.20;;;17.50;;
47403;SDS011;33157;51.508;4.288;2023-04-24T00:44:21;31.77;;;16.60;;
47403;SDS011;33157;51.508;4.288;2023-04-24T00:49:23;30.60;;;15.48;;
47403;SDS011;33157;51.508;4.288;2023-04-24T00:54:41;18.63;;;9.02;;
47403;SDS011;33157;51.508;4.288;2023-04-24T00:59:42;19.58;;;8.40;;
47403;SDS011;33157;51.508;4.288;2023-04-24T01:04:44;23.77;;;9.47;;
47403;SDS011;33157;51.508;4.288;2023-04-24T01:09:46;22.27;;;9.45;;
47403;SDS011;33157;51.508;4.288;2023-04-24T01:14:50;17.52;;;8.35;;
47403;SDS011;33157;51.508;4.288;2023-04-24T01:19:58;17.70;;;8.00;;
47403;SDS011;33157;51.508;4.288;2023-04-24T01:25:00;18.40;;;7.03;;
47403;SDS011;33157;51.508;4.288;2023-04-24T01:30:02;26.92;;;8.98;;
47403;SDS011;33157;51.508;4.288;2023-04-24T01:35:04;18.35;;;8.25;;
47403;SDS011;33157;51.508;4.288;2023-04-24T01:40:06;18.07;;;8.07;;
47403;SDS011;33157;51.508;4.288;2023-04-24T01:45:09;29.30;;;10.03;;
47403;SDS011;33157;51.508;4.288;2023-04-24T01:50:17;14.60;;;6.70;;
47403;SDS011;33157;51.508;4.288;2023-04-24T01:55:18;14.40;;;6.03;;
47403;SDS011;33157;51.508;4.288;2023-04-24T02:00:25;13.48;;;5.70;;
47403;SDS011;33157;51.508;4.288;2023-04-24T02:05:26;11.23;;;3.90;;
47403;SDS011;33157;51.508;4.288;2023-04-24T02:10:30;12.48;;;4.50;;
47403;SDS011;33157;51.508;4.288;2023-04-24T02:15:30;4.47;;;2.72;;
47403;SDS011;33157;51.508;4.288;2023-04-24T02:20:32;9.43;;;3.85;;
47403;SDS011;33157;51.508;4.288;2023-04-24T02:25:36;7.57;;;3.95;;
47403;SDS011;33157;51.508;4.288;2023-04-24T02:30:37;16.73;;;4.67;;
47403;SDS011;33157;51.508;4.288;2023-04-24T02:35:41;9.80;;;4.68;;
47403;SDS011;33157;51.508;4.288;2023-04-24T02:40:49;13.32;;;5.07;;
47403;SDS011;33157;51.508;4.288;2023-04-24T02:45:51;11.50;;;3.92;;
47403;SDS011;33157;51.508;4.288;2023-04-24T02:50:52;10.73;;;2.45;;
47403;SDS011;33157;51.508;4.288;2023-04-24T02:55:53;12.32;;;3.05;;
47403;SDS011;33157;51.508;4.288;2023-04-24T03:00:55;12.57;;;4.87;;
47403;SDS011;33157;51.508;4.288;2023-04-24T03:05:57;15.33;;;3.93;;
47403;SDS011;33157;51.508;4.288;2023-04-24T03:10:58;20.90;;;6.00;;
47403;SDS011;33157;51.508;4.288;2023-04-24T03:15:59;11.38;;;3.58;;
47403;SDS011;33157;51.508;4.288;2023-04-24T03:21:01;9.95;;;3.42;;
47403;SDS011;33157;51.508;4.288;2023-04-24T03:26:02;6.28;;;2.90;;
47403;SDS011;33157;51.508;4.288;2023-04-24T03:31:04;14.13;;;3.88;;
47403;SDS011;33157;51.508;4.288;2023-04-24T03:36:11;15.05;;;3.90;;
47403;SDS011;33157;51.508;4.288;2023-04-24T03:41:18;18.33;;;4.60;;
47403;SDS011;33157;51.508;4.288;2023-04-24T03:46:19;10.25;;;3.78;;
47403;SDS011;33157;51.508;4.288;2023-04-24T03:51:25;10.95;;;3.90;;
47403;SDS011;33157;51.508;4.288;2023-04-24T03:56:28;13.63;;;4.40;;
47403;SDS011;33157;51.508;4.288;2023-04-24T04:01:30;9.93;;;3.95;;
47403;SDS011;33157;51.508;4.288;2023-04-24T04:06:31;14.23;;;5.00;;
47403;SDS011;33157;51.508;4.288;2023-04-24T04:11:42;15.30;;;5.67;;
47403;SDS011;33157;51.508;4.288;2023-04-24T04:16:43;16.80;;;4.88;;
47403;SDS011;33157;51.508;4.288;2023-04-24T04:21:44;16.85;;;5.35;;
47403;SDS011;33157;51.508;4.288;2023-04-24T04:26:47;19.15;;;5.72;;
47403;SDS011;33157;51.508;4.288;2023-04-24T04:31:51;16.23;;;6.07;;
47403;SDS011;33157;51.508;4.288;2023-04-24T04:36:53;16.67;;;6.63;;
47403;SDS011;33157;51.508;4.288;2023-04-24T04:42:01;16.20;;;8.32;;
47403;SDS011;33157;51.508;4.288;2023-04-24T04:47:05;25.30;;;10.63;;
47403;SDS011;33157;51.508;4.288;2023-04-24T04:52:07;24.10;;;11.90;;
47403;SDS011;33157;51.508;4.288;2023-04-24T04:57:08;23.92;;;10.60;;
47403;SDS011;33157;51.508;4.288;2023-04-24T05:02:10;31.00;;;13.05;;
47403;SDS011;33157;51.508;4.288;2023-04-24T05:07:12;25.55;;;11.68;;
47403;SDS011;33157;51.508;4.288;2023-04-24T05:12:16;28.70;;;12.43;;
47403;SDS011;33157;51.508;4.288;2023-04-24T05:17:19;25.97;;;14.40;;
47403;SDS011;33157;51.508;4.288;2023-04-24T05:22:24;38.90;;;14.18;;
47403;SDS011;33157;51.508;4.288;2023-04-24T05:27:25;29.38;;;11.27;;
47403;SDS011;33157;51.508;4.288;2023-04-24T05:32:27;31.77;;;11.60;;
47403;SDS011;33157;51.508;4.288;2023-04-24T05:37:28;22.23;;;10.68;;
47403;SDS011;33157;51.508;4.288;2023-04-24T05:47:32;17.27;;;8.50;;
47403;SDS011;33157;51.508;4.288;2023-04-24T05:52:36;21.25;;;8.48;;
47403;SDS011;33157;51.508;4.288;2023-04-24T05:57:37;23.58;;;9.45;;
47403;SDS011;33157;51.508;4.288;2023-04-24T06:02:38;28.38;;;9.52;;
47403;SDS011;33157;51.508;4.288;2023-04-24T06:07:39;19.95;;;7.72;;
47403;SDS011;33157;51.508;4.288;2023-04-24T06:12:40;21.27;;;7.40;;
47403;SDS011;33157;51.508;4.288;2023-04-24T06:17:42;23.75;;;7.88;;
47403;SDS011;33157;51.508;4.288;2023-04-24T06:22:45;14.55;;;7.05;;
47403;SDS011;33157;51.508;4.288;2023-04-24T06:27:45;33.40;;;7.20;;
47403;SDS011;33157;51.508;4.288;2023-04-24T06:32:48;30.35;;;7.97;;
47403;SDS011;33157;51.508;4.288;2023-04-24T06:37:50;28.23;;;7.68;;
47403;SDS011;33157;51.508;4.288;2023-04-24T06:42:51;27.80;;;8.27;;
47403;SDS011;33157;51.508;4.288;2023-04-24T06:47:52;24.13;;;6.18;;
47403;SDS011;33157;51.508;4.288;2023-04-24T06:52:54;22.25;;;5.03;;
47403;SDS011;33157;51.508;4.288;2023-04-24T06:57:59;22.63;;;6.00;;
47403;SDS011;33157;51.508;4.288;2023-04-24T07:03:00;17.30;;;5.30;;
47403;SDS011;33157;51.508;4.288;2023-04-24T07:08:04;14.07;;;4.40;;
47403;SDS011;33157;51.508;4.288;2023-04-24T07:18:09;26.70;;;6.47;;
47403;SDS011;33157;51.508;4.288;2023-04-24T07:23:14;26.23;;;5.88;;
47403;SDS011;33157;51.508;4.288;2023-04-24T07:28:16;19.60;;;4.55;;
47403;SDS011;33157;51.508;4.288;2023-04-24T07:33:21;37.53;;;5.68;;
47403;SDS011;33157;51.508;4.288;2023-04-24T07:38:23;29.97;;;5.43;;
47403;SDS011;33157;51.508;4.288;2023-04-24T07:43:26;20.60;;;4.32;;
47403;SDS011;33157;51.508;4.288;2023-04-24T07:48:28;18.83;;;4.03;;
47403;SDS011;33157;51.508;4.288;2023-04-24T07:53:31;19.13;;;3.53;;
47403;SDS011;33157;51.508;4.288;2023-04-24T07:58:32;23.73;;;3.67;;
47403;SDS011;33157;51.508;4.288;2023-04-24T08:03:35;19.55;;;3.00;;
47403;SDS011;33157;51.508;4.288;2023-04-24T08:08:38;14.65;;;3.75;;
47403;SDS011;33157;51.508;4.288;2023-04-24T08:13:39;15.98;;;3.22;;
47403;SDS011;33157;51.508;4.288;2023-04-24T08:18:40;21.52;;;3.75;;
47403;SDS011;33157;51.508;4.288;2023-04-24T08:23:50;22.75;;;4.72;;
47403;SDS011;33157;51.508;4.288;2023-04-24T08:28:55;19.85;;;3.67;;
47403;SDS011;33157;51.508;4.288;2023-04-24T08:44:02;14.83;;;1.70;;
47403;SDS011;33157;51.508;4.288;2023-04-24T08:49:06;14.02;;;2.13;;
47403;SDS011;33157;51.508;4.288;2023-04-24T08:54:08;9.25;;;1.95;;
47403;SDS011;33157;51.508;4.288;2023-04-24T08:59:09;13.07;;;2.50;;
47403;SDS011;33157;51.508;4.288;2023-04-24T09:04:11;12.10;;;1.83;;
47403;SDS011;33157;51.508;4.288;2023-04-24T09:09:14;6.75;;;1.35;;
47403;SDS011;33157;51.508;4.288;2023-04-24T09:14:17;7.88;;;2.20;;
47403;SDS011;33157;51.508;4.288;2023-04-24T09:19:21;7.63;;;1.92;;
47403;SDS011;33157;51.508;4.288;2023-04-24T09:24:22;8.00;;;1.50;;
47403;SDS011;33157;51.508;4.288;2023-04-24T09:29:24;8.07;;;1.60;;
47403;SDS011;33157;51.508;4.288;2023-04-24T09:34:40;8.98;;;1.70;;
47403;SDS011;33157;51.508;4.288;2023-04-24T09:39:41;8.82;;;1.70;;
47403;SDS011;33157;51.508;4.288;2023-04-24T09:44:41;8.50;;;1.38;;
47403;SDS011;33157;51.508;4.288;2023-04-24T09:49:43;9.73;;;1.93;;
47403;SDS011;33157;51.508;4.288;2023-04-24T09:54:45;10.07;;;2.30;;
47403;SDS011;33157;51.508;4.288;2023-04-24T09:59:57;8.82;;;1.60;;
47403;SDS011;33157;51.508;4.288;2023-04-24T10:05:03;5.40;;;1.13;;
47403;SDS011;33157;51.508;4.288;2023-04-24T10:10:05;5.97;;;0.95;;
47403;SDS011;33157;51.508;4.288;2023-04-24T10:15:17;6.38;;;1.35;;
47403;SDS011;33157;51.508;4.288;2023-04-24T10:20:27;6.53;;;2.25;;
47403;SDS011;33157;51.508;4.288;2023-04-24T10:25:32;13.25;;;2.05;;
47403;SDS011;33157;51.508;4.288;2023-04-24T10:30:34;6.25;;;1.15;;
47403;SDS011;33157;51.508;4.288;2023-04-24T10:35:37;6.50;;;1.23;;
47403;SDS011;33157;51.508;4.288;2023-04-24T10:40:44;8.77;;;1.88;;
47403;SDS011;33157;51.508;4.288;2023-04-24T10:46:00;6.95;;;2.03;;
47403;SDS011;33157;51.508;4.288;2023-04-24T10:51:04;10.85;;;1.85;;
47403;SDS011;33157;51.508;4.288;2023-04-24T10:56:06;6.55;;;1.80;;
47403;SDS011;33157;51.508;4.288;2023-04-24T11:01:07;7.97;;;1.20;;
47403;SDS011;33157;51.508;4.288;2023-04-24T11:06:16;6.68;;;1.70;;
47403;SDS011;33157;51.508;4.288;2023-04-24T11:11:34;11.93;;;2.25;;
47403;SDS011;33157;51.508;4.288;2023-04-24T11:16:42;9.60;;;2.03;;
47403;SDS011;33157;51.508;4.288;2023-04-24T11:27:12;9.13;;;1.92;;
47403;SDS011;33157;51.508;4.288;2023-04-24T11:37:41;8.38;;;1.60;;
47403;SDS011;33157;51.508;4.288;2023-04-24T11:42:44;7.72;;;1.60;;
47403;SDS011;33157;51.508;4.288;2023-04-24T11:47:45;10.02;;;1.55;;
47403;SDS011;33157;51.508;4.288;2023-04-24T11:52:48;16.02;;;1.30;;
47403;SDS011;33157;51.508;4.288;2023-04-24T12:03:25;4.07;;;1.05;;
47403;SDS011;33157;51.508;4.288;2023-04-24T12:08:27;7.55;;;2.08;;
47403;SDS011;33157;51.508;4.288;2023-04-24T12:13:29;5.78;;;1.58;;
47403;SDS011;33157;51.508;4.288;2023-04-24T12:18:30;8.95;;;1.63;;
47403;SDS011;33157;51.508;4.288;2023-04-24T12:23:38;5.80;;;1.50;;
47403;SDS011;33157;51.508;4.288;2023-04-24T12:28:41;12.23;;;2.13;;
47403;SDS011;33157;51.508;4.288;2023-04-24T12:33:42;9.30;;;1.58;;
47403;SDS011;33157;51.508;4.288;2023-04-24T12:39:02;8.93;;;1.45;;
47403;SDS011;33157;51.508;4.288;2023-04-24T12:44:03;6.53;;;1.60;;
47403;SDS011;33157;51.508;4.288;2023-04-24T12:49:37;7.72;;;1.98;;
47403;SDS011;33157;51.508;4.288;2023-04-24T12:54:45;9.82;;;2.08;;
47403;SDS011;33157;51.508;4.288;2023-04-24T12:59:46;6.55;;;1.95;;
47403;SDS011;33157;51.508;4.288;2023-04-24T13:04:48;14.65;;;2.33;;
47403;SDS011;33157;51.508;4.288;2023-04-24T13:09:52;9.82;;;2.65;;
47403;SDS011;33157;51.508;4.288;2023-04-24T13:14:54;10.25;;;1.73;;
47403;SDS011;33157;51.508;4.288;2023-04-24T13:19:56;6.90;;;2.08;;
47403;SDS011;33157;51.508;4.288;2023-04-24T13:24:59;5.55;;;1.50;;
47403;SDS011;33157;51.508;4.288;2023-04-24T13:30:02;4.03;;;1.63;;
47403;SDS011;33157;51.508;4.288;2023-04-24T13:35:05;8.27;;;2.22;;
47403;SDS011;33157;51.508;4.288;2023-04-24T13:40:08;5.07;;;1.67;;
47403;SDS011;33157;51.508;4.288;2023-04-24T13:45:14;8.32;;;1.40;;
47403;SDS011;33157;51.508;4.288;2023-04-24T13:50:16;4.35;;;1.88;;
47403;SDS011;33157;51.508;4.288;2023-04-24T13:55:26;7.75;;;1.60;;
47403;SDS011;33157;51.508;4.288;2023-04-24T14:00:27;8.43;;;2.08;;
47403;SDS011;33157;51.508;4.288;2023-04-24T14:05:34;4.97;;;1.83;;
47403;SDS011;33157;51.508;4.288;2023-04-24T14:10:35;10.50;;;2.15;;
47403;SDS011;33157;51.508;4.288;2023-04-24T14:15:36;6.38;;;1.73;;
47403;SDS011;33157;51.508;4.288;2023-04-24T14:20:37;5.63;;;1.70;;
47403;SDS011;33157;51.508;4.288;2023-04-24T14:25:40;4.47;;;1.60;;
47403;SDS011;33157;51.508;4.288;2023-04-24T14:30:41;9.13;;;2.28;;
47403;SDS011;33157;51.508;4.288;2023-04-24T14:35:42;11.77;;;1.73;;
47403;SDS011;33157;51.508;4.288;2023-04-24T14:40:44;9.95;;;2.42;;
47403;SDS011;33157;51.508;4.288;2023-04-24T14:45:46;8.07;;;2.85;;
47403;SDS011;33157;51.508;4.288;2023-04-24T14:50:47;10.80;;;2.55;;
47403;SDS011;33157;51.508;4.288;2023-04-24T14:55:49;12.98;;;2.85;;
47403;SDS011;33157;51.508;4.288;2023-04-24T15:00:50;10.57;;;2.28;;
47403;SDS011;33157;51.508;4.288;2023-04-24T15:06:04;9.75;;;2.60;;
47403;SDS011;33157;51.508;4.288;2023-04-24T15:11:09;12.80;;;2.30;;
47403;SDS011;33157;51.508;4.288;2023-04-24T15:16:18;12.23;;;2.95;;
47403;SDS011;33157;51.508;4.288;2023-04-24T15:21:20;7.53;;;2.10;;
47403;SDS011;33157;51.508;4.288;2023-04-24T15:26:22;4.65;;;1.42;;
47403;SDS011;33157;51.508;4.288;2023-04-24T15:31:30;7.85;;;2.40;;
47403;SDS011;33157;51.508;4.288;2023-04-24T15:36:32;8.38;;;2.15;;
47403;SDS011;33157;51.508;4.288;2023-04-24T15:41:38;10.40;;;2.30;;
47403;SDS011;33157;51.508;4.288;2023-04-24T15:46:43;9.75;;;2.70;;
47403;SDS011;33157;51.508;4.288;2023-04-24T15:51:45;7.85;;;2.47;;
47403;SDS011;33157;51.508;4.288;2023-04-24T15:56:45;9.00;;;2.60;;
47403;SDS011;33157;51.508;4.288;2023-04-24T16:01:51;10.45;;;2.30;;
47403;SDS011;33157;51.508;4.288;2023-04-24T16:06:55;10.80;;;3.22;;
47403;SDS011;33157;51.508;4.288;2023-04-24T16:11:58;11.32;;;2.78;;
47403;SDS011;33157;51.508;4.288;2023-04-24T16:17:11;10.93;;;2.87;;
47403;SDS011;33157;51.508;4.288;2023-04-24T16:22:18;10.32;;;2.70;;
47403;SDS011;33157;51.508;4.288;2023-04-24T16:27:25;9.68;;;2.35;;
47403;SDS011;33157;51.508;4.288;2023-04-24T16:32:30;8.93;;;2.15;;
47403;SDS011;33157;51.508;4.288;2023-04-24T16:37:38;11.13;;;2.80;;
47403;SDS011;33157;51.508;4.288;2023-04-24T16:42:39;12.85;;;2.92;;
47403;SDS011;33157;51.508;4.288;2023-04-24T16:47:41;10.80;;;2.97;;
47403;SDS011;33157;51.508;4.288;2023-04-24T16:52:46;15.77;;;3.80;;
47403;SDS011;33157;51.508;4.288;2023-04-24T16:57:51;14.23;;;4.45;;
47403;SDS011;33157;51.508;4.288;2023-04-24T17:02:57;12.80;;;3.50;;
47403;SDS011;33157;51.508;4.288;2023-04-24T17:07:59;12.63;;;3.70;;
47403;SDS011;33157;51.508;4.288;2023-04-24T17:13:07;13.48;;;3.72;;
47403;SDS011;33157;51.508;4.288;2023-04-24T17:18:08;17.02;;;3.45;;
47403;SDS011;33157;51.508;4.288;2023-04-24T17:23:09;10.32;;;3.50;;
47403;SDS011;33157;51.508;4.288;2023-04-24T17:28:26;14.57;;;3.63;;
47403;SDS011;33157;51.508;4.288;2023-04-24T17:33:28;14.65;;;4.05;;
47403;SDS011;33157;51.508;4.288;2023-04-24T17:38:35;20.52;;;4.25;;
47403;SDS011;33157;51.508;4.288;2023-04-24T17:43:41;14.57;;;2.92;;
47403;SDS011;33157;51.508;4.288;2023-04-24T17:48:52;17.52;;;4.07;;
47403;SDS011;33157;51.508;4.288;2023-04-24T17:53:53;14.55;;;3.83;;
47403;SDS011;33157;51.508;4.288;2023-04-24T17:58:55;11.70;;;3.42;;
47403;SDS011;33157;51.508;4.288;2023-04-24T18:03:57;12.68;;;3.78;;
47403;SDS011;33157;51.508;4.288;2023-04-24T18:08:58;19.65;;;4.63;;
47403;SDS011;33157;51.508;4.288;2023-04-24T18:14:06;16.20;;;4.07;;
47403;SDS011;33157;51.508;4.288;2023-04-24T18:19:14;23.20;;;5.07;;
47403;SDS011;33157;51.508;4.288;2023-04-24T18:24:15;18.67;;;4.53;;
47403;SDS011;33157;51.508;4.288;2023-04-24T18:29:18;16.15;;;4.53;;
47403;SDS011;33157;51.508;4.288;2023-04-24T18:34:20;18.05;;;4.78;;
47403;SDS011;33157;51.508;4.288;2023-04-24T18:39:21;21.60;;;4.68;;
47403;SDS011;33157;51.508;4.288;2023-04-24T18:44:22;18.80;;;4.80;;
47403;SDS011;33157;51.508;4.288;2023-04-24T18:49:25;22.42;;;5.35;;
47403;SDS011;33157;51.508;4.288;2023-04-24T18:54:27;19.88;;;5.57;;
47403;SDS011;33157;51.508;4.288;2023-04-24T18:59:28;23.58;;;5.57;;
47403;SDS011;33157;51.508;4.288;2023-04-24T19:04:29;18.23;;;4.60;;
47403;SDS011;33157;51.508;4.288;2023-04-24T19:09:37;25.23;;;4.43;;
47403;SDS011;33157;51.508;4.288;2023-04-24T19:14:38;15.27;;;4.57;;
47403;SDS011;33157;51.508;4.288;2023-04-24T19:24:51;14.00;;;4.07;;
47403;SDS011;33157;51.508;4.288;2023-04-24T19:29:53;21.40;;;4.35;;
47403;SDS011;33157;51.508;4.288;2023-04-24T19:35:01;17.63;;;4.60;;
47403;SDS011;33157;51.508;4.288;2023-04-24T19:40:02;17.83;;;4.38;;
47403;SDS011;33157;51.508;4.288;2023-04-24T19:45:04;22.17;;;4.93;;
47403;SDS011;33157;51.508;4.288;2023-04-24T19:50:06;16.10;;;4.57;;
47403;SDS011;33157;51.508;4.288;2023-04-24T19:55:09;21.90;;;4.82;;
47403;SDS011;33157;51.508;4.288;2023-04-24T20:00:15;14.82;;;3.95;;
47403;SDS011;33157;51.508;4.288;2023-04-24T20:05:18;15.73;;;3.70;;
47403;SDS011;33157;51.508;4.288;2023-04-24T20:10:28;16.73;;;3.83;;
47403;SDS011;33157;51.508;4.288;2023-04-24T20:15:29;20.27;;;4.93;;
47403;SDS011;33157;51.508;4.288;2023-04-24T20:20:36;17.52;;;4.00;;
47403;SDS011;33157;51.508;4.288;2023-04-24T20:25:39;24.17;;;6.00;;
47403;SDS011;33157;51.508;4.288;2023-04-24T20:30:40;21.77;;;6.45;;
47403;SDS011;33157;51.508;4.288;2023-04-24T20:35:45;15.05;;;4.05;;
47403;SDS011;33157;51.508;4.288;2023-04-24T20:40:51;16.20;;;3.40;;
47403;SDS011;33157;51.508;4.288;2023-04-24T20:45:52;19.02;;;4.07;;
47403;SDS011;33157;51.508;4.288;2023-04-24T20:50:54;12.38;;;3.67;;
47403;SDS011;33157;51.508;4.288;2023-04-24T20:55:55;20.80;;;4.47;;
47403;SDS011;33157;51.508;4.288;2023-04-24T21:00:56;17.00;;;3.70;;
47403;SDS011;33157;51.508;4.288;2023-04-24T21:05:58;19.45;;;4.05;;
47403;SDS011;33157;51.508;4.288;2023-04-24T21:11:00;16.42;;;4.18;;
47403;SDS011;33157;51.508;4.288;2023-04-24T21:16:03;24.33;;;4.93;;
47403;SDS011;33157;51.508;4.288;2023-04-24T21:21:06;13.63;;;4.10;;
47403;SDS011;33157;51.508;4.288;2023-04-24T21:26:10;17.67;;;4.43;;
47403;SDS011;33157;51.508;4.288;2023-04-24T21:31:12;19.77;;;3.88;;
47403;SDS011;33157;51.508;4.288;2023-04-24T21:36:13;16.97;;;4.17;;
47403;SDS011;33157;51.508;4.288;2023-04-24T21:41:14;21.73;;;4.90;;
47403;SDS011;33157;51.508;4.288;2023-04-24T21:46:16;25.30;;;4.85;;
47403;SDS011;33157;51.508;4.288;2023-04-24T21:51:19;24.88;;;5.60;;
47403;SDS011;33157;51.508;4.288;2023-04-24T21:56:22;21.67;;;5.38;;
47403;SDS011;33157;51.508;4.288;2023-04-24T22:01:22;22.65;;;4.88;;
47403;SDS011;33157;51.508;4.288;2023-04-24T22:06:24;26.35;;;5.57;;
47403;SDS011;33157;51.508;4.288;2023-04-24T22:11:26;15.67;;;4.40;;
47403;SDS011;33157;51.508;4.288;2023-04-24T22:16:27;23.17;;;5.18;;
47403;SDS011;33157;51.508;4.288;2023-04-24T22:21:30;16.02;;;4.57;;
47403;SDS011;33157;51.508;4.288;2023-04-24T22:26:32;22.08;;;4.90;;
47403;SDS011;33157;51.508;4.288;2023-04-24T22:31:34;23.48;;;5.40;;
47403;SDS011;33157;51.508;4.288;2023-04-24T22:36:47;19.67;;;4.85;;
47403;SDS011;33157;51.508;4.288;2023-04-24T22:41:49;19.13;;;4.30;;
47403;SDS011;33157;51.508;4.288;2023-04-24T22:46:50;19.67;;;4.57;;
47403;SDS011;33157;51.508;4.288;2023-04-24T22:51:52;23.52;;;5.95;;
47403;SDS011;33157;51.508;4.288;2023-04-24T22:56:57;18.95;;;5.28;;
47403;SDS011;33157;51.508;4.288;2023-04-24T23:02:00;22.05;;;5.00;;
47403;SDS011;33157;51.508;4.288;2023-04-24T23:07:00;28.07;;;5.47;;
47403;SDS011;33157;51.508;4.288;2023-04-24T23:12:02;17.70;;;5.18;;
47403;SDS011;33157;51.508;4.288;2023-04-24T23:17:03;21.20;;;5.03;;
47403;SDS011;33157;51.508;4.288;2023-04-24T23:22:04;19.38;;;4.65;;
47403;SDS011;33157;51.508;4.288;2023-04-24T23:27:05;19.38;;;4.43;;
47403;SDS011;33157;51.508;4.288;2023-04-24T23:32:09;19.98;;;4.30;;
47403;SDS011;33157;51.508;4.288;2023-04-24T23:37:10;22.83;;;6.43;;
47403;SDS011;33157;51.508;4.288;2023-04-24T23:42:12;19.00;;;4.27;;
47403;SDS011;33157;51.508;4.288;2023-04-24T23:47:14;21.20;;;4.80;;
47403;SDS011;33157;51.508;4.288;2023-04-24T23:52:14;21.40;;;4.93;;
47403;SDS011;33157;51.508;4.288;2023-04-24T23:57:17;18.98;;;4.85;;
